TimeCST,TemperatureF,Dew PointF,Humidity,Sea Level PressureIn,VisibilityMPH,Wind Direction,Wind SpeedMPH,Gust SpeedMPH,PrecipitationIn,Events,Conditions,WindDirDegrees,DateUTC
12:53 AM,27.0,17.1,66,30.83,10.0,North,8.1,-,N/A,,Scattered Clouds,10,2013-11-12 06:53:00
1:53 AM,26.1,16.0,66,30.84,10.0,North,10.4,-,N/A,,Partly Cloudy,10,2013-11-12 07:53:00
2:53 AM,24.1,14.0,65,30.85,10.0,NNE,6.9,-,N/A,,Clear,30,2013-11-12 08:53:00
3:53 AM,19.9,14.0,78,30.88,10.0,North,4.6,-,N/A,,Clear,360,2013-11-12 09:53:00
4:53 AM,18.0,14.0,84,30.89,10.0,Calm,Calm,-,N/A,,Clear,0,2013-11-12 10:53:00
5:53 AM,15.1,12.0,88,30.90,10.0,North,3.5,-,N/A,,Clear,350,2013-11-12 11:53:00
6:53 AM,15.1,12.0,88,30.90,10.0,Calm,Calm,-,N/A,,Clear,0,2013-11-12 12:53:00
7:53 AM,17.1,12.9,84,30.92,10.0,Calm,Calm,-,N/A,,Clear,0,2013-11-12 13:53:00
8:53 AM,21.0,14.0,74,30.93,10.0,SE,3.5,-,N/A,,Clear,140,2013-11-12 14:53:00
9:53 AM,25.0,15.1,66,30.92,10.0,SSE,4.6,-,N/A,,Clear,160,2013-11-12 15:53:00
10:53 AM,28.9,16.0,58,30.90,10.0,SSW,4.6,-,N/A,,Clear,200,2013-11-12 16:53:00
11:53 AM,32.0,16.0,52,30.87,10.0,Calm,Calm,-,N/A,,Clear,0,2013-11-12 17:53:00
12:53 PM,35.1,15.1,44,30.81,10.0,Variable,3.5,-,N/A,,Clear,0,2013-11-12 18:53:00
1:53 PM,39.0,19.0,45,30.77,10.0,SW,6.9,-,N/A,,Clear,220,2013-11-12 19:53:00
2:53 PM,41.0,21.0,45,30.74,10.0,SSW,6.9,-,N/A,,Clear,210,2013-11-12 20:53:00
3:53 PM,42.1,21.9,45,30.72,10.0,SSW,6.9,-,N/A,,Clear,200,2013-11-12 21:53:00
4:53 PM,39.9,23.0,51,30.70,10.0,South,8.1,-,N/A,,Clear,190,2013-11-12 22:53:00
5:53 PM,34.0,21.9,61,30.68,10.0,South,4.6,-,N/A,,Clear,190,2013-11-12 23:53:00
6:53 PM,33.1,21.9,64,30.68,10.0,SSW,5.8,-,N/A,,Clear,200,2013-11-13 00:53:00
7:53 PM,32.0,21.0,64,30.66,10.0,SSW,8.1,-,N/A,,Clear,200,2013-11-13 01:53:00
8:53 PM,30.9,21.9,69,30.65,10.0,SSW,4.6,-,N/A,,Clear,210,2013-11-13 02:53:00
9:53 PM,28.9,21.9,75,30.64,10.0,SSW,4.6,-,N/A,,Clear,210,2013-11-13 03:53:00
10:53 PM,28.9,23.0,78,30.61,10.0,SSW,3.5,-,N/A,,Clear,210,2013-11-13 04:53:00
11:53 PM,30.0,23.0,75,30.58,10.0,SSW,6.9,-,N/A,,Clear,200,2013-11-13 05:53:00